createdAt,value
2018-08-06T09:23:41.612Z,54.7
2018-08-06T09:28:45.510Z,48.7
2018-08-06T09:33:47.217Z,49.1
2018-08-06T09:38:45.973Z,49.9
2018-08-06T09:43:44.782Z,49.8
2018-08-06T09:48:43.972Z,46.3
2018-08-06T09:53:42.997Z,40.4
2018-08-06T09:58:41.894Z,42.9
2018-08-06T10:03:40.734Z,43
2018-08-06T10:08:38.985Z,42.3
2018-08-06T10:13:37.815Z,37
2018-08-06T10:18:35.881Z,41.5
2018-08-06T10:23:33.945Z,36.5
2018-08-06T10:28:32.454Z,34.3
2018-08-06T10:33:30.414Z,37.5
2018-08-06T10:38:28.980Z,34.7
2018-08-06T10:43:26.498Z,35
2018-08-06T10:48:24.293Z,36.9
2018-08-06T10:53:22.651Z,37.4
2018-08-06T10:58:21.039Z,36.8
2018-08-06T11:03:18.208Z,35.9
2018-08-06T11:08:15.690Z,33.2
2018-08-06T11:13:13.072Z,36.3
2018-08-06T11:18:10.413Z,37
2018-08-06T11:23:07.551Z,36.4
2018-08-06T11:28:04.149Z,35.3
2018-08-06T11:33:01.208Z,35.9
2018-08-06T11:37:57.894Z,30.8
2018-08-06T11:42:54.859Z,30.6
2018-08-06T11:47:51.221Z,31.5
2018-08-06T11:52:48.194Z,31.5
2018-08-06T11:57:44.876Z,30.2
2018-08-06T12:02:43.499Z,19
2018-08-06T12:07:46.970Z,14.3
2018-08-06T12:12:47.589Z,11.8
2018-08-06T12:17:46.135Z,10
2018-08-06T12:22:44.345Z,9.8
2018-08-06T12:27:42.135Z,10
2018-08-06T12:32:39.362Z,13.4
2018-08-06T12:37:29.403Z,21.8
2018-08-06T12:42:21.884Z,25.2
2018-08-06T12:44:34.060Z,43.8
2018-08-06T12:49:27.304Z,42.2
2018-08-06T12:54:25.149Z,42.9
2018-08-06T12:59:21.157Z,43.9
2018-08-06T13:04:17.542Z,43.3
2018-08-06T13:09:13.867Z,40.3
2018-08-06T13:14:11.336Z,40.1
2018-08-06T13:19:08.249Z,40.3
2018-08-06T13:24:05.133Z,40.7
2018-08-06T13:29:02.166Z,40.6
2018-08-06T13:33:58.766Z,40.5
2018-08-06T13:38:55.610Z,40.7
2018-08-06T13:43:52.412Z,40.5
2018-08-06T13:48:49.385Z,40.6
2018-08-06T13:53:46.500Z,40.4
2018-08-06T13:58:43.301Z,40.6
2018-08-06T14:03:40.192Z,40.4
2018-08-06T14:08:36.933Z,40
2018-08-06T14:13:33.722Z,39.7
2018-08-06T14:18:30.715Z,40.2
2018-08-06T14:23:27.605Z,39.8
2018-08-06T14:28:24.675Z,39.5
2018-08-06T14:33:21.605Z,39.6
2018-08-06T14:38:18.605Z,39.6
2018-08-06T14:43:15.277Z,38.8
2018-08-06T14:48:12.061Z,38.7
2018-08-06T14:53:09.004Z,38
2018-08-06T14:58:05.836Z,37.7
2018-08-06T15:03:02.232Z,37.9
2018-08-06T15:07:59.257Z,38.2
2018-08-06T15:12:56.731Z,38
2018-08-06T15:17:53.092Z,38.2
2018-08-06T15:22:49.987Z,38.3
2018-08-06T15:27:46.744Z,38.3
2018-08-06T15:32:43.716Z,37.7
2018-08-06T15:37:40.677Z,37.2
2018-08-06T15:42:37.536Z,37.2
2018-08-06T15:47:34.829Z,36.9
2018-08-06T15:52:31.603Z,35.5
2018-08-06T15:57:28.395Z,35.9
2018-08-06T16:02:25.117Z,36
2018-08-06T16:07:22.020Z,36.1
2018-08-06T16:12:18.230Z,36.5
2018-08-06T16:17:15.205Z,36.8
2018-08-06T16:22:12.125Z,37.2
2018-08-06T16:27:09.213Z,37.3
2018-08-06T16:32:07.507Z,37.5
2018-08-06T16:37:06.677Z,37.6
2018-08-06T16:42:03.990Z,37.9
2018-08-06T16:47:04.606Z,38.3
2018-08-06T16:52:01.440Z,38.7
2018-08-06T16:56:58.054Z,38.8
2018-08-06T17:01:54.763Z,39
2018-08-06T17:06:51.941Z,39
2018-08-06T17:11:48.775Z,38.9
2018-08-06T17:16:46.398Z,39.1
2018-08-06T17:21:43.068Z,39.4
2018-08-06T17:26:39.767Z,39.6
2018-08-06T17:31:36.488Z,39.6
2018-08-06T17:36:33.396Z,39.9
2018-08-06T17:41:29.852Z,40.2
2018-08-06T17:46:26.633Z,40.6
2018-08-06T17:51:23.308Z,40.7
2018-08-06T17:56:20.307Z,40.9
2018-08-06T18:01:16.893Z,41.8
2018-08-06T18:06:13.885Z,42.3
2018-08-06T18:11:10.560Z,42.5
2018-08-06T18:16:07.348Z,42.5
2018-08-06T18:21:04.196Z,42.8
2018-08-06T18:26:01.089Z,43.1
2018-08-06T18:30:57.717Z,43.2
2018-08-06T18:35:54.560Z,43.2
2018-08-06T18:40:51.510Z,43.4
2018-08-06T18:45:48.343Z,43.8
2018-08-06T18:50:45.036Z,43.8
2018-08-06T18:55:42.108Z,43.8
2018-08-06T19:00:38.928Z,44
2018-08-06T19:05:35.806Z,44.2
2018-08-06T19:10:32.744Z,44.3
2018-08-06T19:15:29.393Z,44.3
2018-08-06T19:20:26.042Z,44.4
2018-08-06T19:25:25.441Z,44.5
2018-08-06T19:30:22.016Z,44.5
2018-08-06T19:35:19.721Z,44.8
2018-08-06T19:40:16.983Z,45
2018-08-06T19:45:14.948Z,45.3
2018-08-06T19:50:12.937Z,45.5
2018-08-06T19:55:15.933Z,45.6
2018-08-06T20:00:12.058Z,45.7
2018-08-06T20:05:10.376Z,45.9
2018-08-06T20:10:08.812Z,45.9
2018-08-06T20:15:08.571Z,45.9
2018-08-06T20:20:09.187Z,46.1
2018-08-06T20:25:11.584Z,46.2
2018-08-06T20:30:08.461Z,46.2
2018-08-06T20:35:10.381Z,46.2
2018-08-06T20:40:07.072Z,46.1
2018-08-06T20:45:09.573Z,46.3
2018-08-06T20:50:10.577Z,46.3
2018-08-06T20:55:14.497Z,46.4
2018-08-06T21:00:12.415Z,46.7
2018-08-06T21:05:14.144Z,46.8
2018-08-06T21:10:11.559Z,46.9
2018-08-06T21:15:08.821Z,46.9
2018-08-06T21:20:07.798Z,47
2018-08-06T21:25:05.210Z,47
2018-08-06T21:30:02.971Z,47.4
2018-08-06T21:35:00.438Z,47.6
2018-08-06T21:39:57.996Z,47.6
2018-08-06T21:44:59.789Z,47.7
2018-08-06T21:49:55.966Z,47.7
2018-08-06T21:54:53.679Z,47.9
2018-08-06T21:59:50.805Z,47.9
2018-08-06T22:04:53.264Z,47.9
2018-08-06T22:09:49.453Z,48
2018-08-06T22:14:47.574Z,48.2
2018-08-06T22:19:44.554Z,48.2
2018-08-06T22:24:41.725Z,48.2
2018-08-06T22:29:38.724Z,48.3
2018-08-06T22:34:35.764Z,48.4
2018-08-06T22:39:32.503Z,48.5
2018-08-06T22:44:29.628Z,48.9
2018-08-06T22:49:26.963Z,48.8
2018-08-06T22:54:24.017Z,48.8
2018-08-06T22:59:20.907Z,48.8
2018-08-06T23:04:17.195Z,48.8
2018-08-06T23:09:14.539Z,48.9
2018-08-06T23:14:11.519Z,48.9
2018-08-06T23:19:08.654Z,49
2018-08-06T23:24:05.816Z,49.1
2018-08-06T23:29:02.809Z,49.2
2018-08-06T23:33:59.478Z,49.3
2018-08-06T23:38:56.372Z,49.4
2018-08-06T23:43:53.760Z,49.5
2018-08-06T23:48:50.714Z,49.7
2018-08-06T23:53:47.711Z,49.9
2018-08-06T23:58:44.495Z,49.9
